Terminal Aerodrome Forecast
Issued by NWS Boston, MA

Home | Current Version | Previous Version | Text Only | Print | Product List | Glossary On
Versions: 1 2 3 4 5 6 7 8 9 10 11 12 13 14 15 16 17 18 19 20 21 22 23 24 25 26 27 28 29 30 31 32 33 34 35 36 37 38 39 40 41 42 43
170
FTUS41 KBOX 272333
TAFPVD
TAF
KPVD 272333Z 2800/2824 35005KT 3SM BR OVC004
     FM280400 35004KT 2SM -DZ BR BKN003
     FM281000 VRB03KT 1 1/2SM -DZ BR BKN003
     FM281300 08004KT 2SM BR VCSH OVC003
     FM281800 08004KT 1SM -SHRA BR BKN003
     FM282100 08005KT 2SM -SHRA BR BKN008=

USA.gov is the U.S. government's official web portal to all federal, state and local government web resources and services.